Hovedside
METAR-TAF:

METAR-TAF

Lufthavner :

Deering, Alaska, USA

breddegrad: 66-05N, lengdegrad: 162-45W, høyde over havet: 5 m

Gjeldene værobservasjon

Denne rapporten ble laget for 1 time og 9 minutter siden, klokken 16:53 UTC
Vind 16 kt fra Øst
Temperatur -8°C
Luftfuktighet 92%
Trykk 1001 hPa
Sikt: 16.1 km
Få skyer i en høyde av 2600 ft
Få skyer i en høyde av 9000 ft

METAR: PADE 231653Z AUTO 08016KT 10SM FEW026 FEW090 M08/M09 A2956 RMK AO2 SLP011 T10781094 TSNO $

Tid: 09:02 (18:02 UTC)


TAF: fraværende

Værobservasjoner og værvarsel for over 4000 flyplasser (METAR- og TAF-rapporter).

Tilgjengelige stasjoner er representert av de røde og gule prikkene på kartet.

Hold musepekeren over prikken for å se navnet på stasjonen.

Klikk så for å se værobservasjoner og -varsler.

For å forandre kartet kan du klikke på den grønne knappen med svart kryss for å zoome inn, på den grønne knappen med strek for å zoome ut, eller på de grønne pilene for å se tilstøtende kart.


METAR-TAF: